createdAt,value
2023-01-19T00:00:38.679Z,98819.40
2023-01-19T00:06:07.154Z,98840.40
2023-01-19T00:11:34.632Z,98859.60
2023-01-19T00:16:50.049Z,98874.20
2023-01-19T00:22:06.721Z,98885.00
2023-01-19T00:27:21.226Z,98899.80
2023-01-19T00:32:30.489Z,98922.00
2023-01-19T00:38:00.240Z,98924.00
2023-01-19T00:43:48.133Z,98940.00
2023-01-19T00:49:12.281Z,98953.60
2023-01-19T00:54:35.800Z,98963.60
2023-01-19T01:00:21.715Z,98969.20
2023-01-19T01:05:34.207Z,98964.60
2023-01-19T01:11:34.497Z,98978.60
2023-01-19T01:17:25.354Z,98980.20
2023-01-19T01:23:11.550Z,98983.00
2023-01-19T01:28:47.714Z,99005.20
2023-01-19T01:34:39.752Z,99019.80
2023-01-19T01:40:28.769Z,99021.60
2023-01-19T01:46:24.755Z,99040.80
2023-01-19T01:53:06.684Z,99047.60
2023-01-19T01:58:37.617Z,99056.80
2023-01-19T02:04:16.834Z,99067.80
2023-01-19T02:10:12.848Z,99083.40
2023-01-19T02:16:00.976Z,99084.80
2023-01-19T02:22:12.605Z,99081.80
2023-01-19T02:27:55.065Z,99093.40
2023-01-19T02:34:10.532Z,99102.00
2023-01-19T02:40:21.869Z,99113.00
2023-01-19T02:46:02.501Z,99113.40
2023-01-19T02:52:04.549Z,99101.00
2023-01-19T02:58:21.372Z,99088.60
2023-01-19T03:04:31.353Z,99101.00
2023-01-19T03:10:49.903Z,99095.60
2023-01-19T03:16:44.237Z,99098.00
2023-01-19T03:22:44.085Z,99096.20
2023-01-19T03:28:29.207Z,99090.20
2023-01-19T03:34:23.101Z,99077.60
2023-01-19T03:40:12.535Z,99093.80
2023-01-19T03:45:59.033Z,99075.20
2023-01-19T03:51:41.323Z,99083.00
2023-01-19T03:56:45.344Z,99083.40
2023-01-19T04:02:24.742Z,99071.20
2023-01-19T04:07:54.128Z,99061.60
2023-01-19T04:13:14.392Z,99061.60
2023-01-19T04:18:33.717Z,99081.20
2023-01-19T04:24:17.162Z,99082.20
2023-01-19T04:29:41.900Z,99090.00
2023-01-19T04:35:38.465Z,99094.20
2023-01-19T04:40:44.301Z,99115.00
2023-01-19T04:46:07.880Z,99126.80
2023-01-19T04:51:43.112Z,99122.40
2023-01-19T04:56:52.338Z,99134.00
2023-01-19T05:02:26.966Z,99144.00
2023-01-19T05:07:32.746Z,99149.80
2023-01-19T05:12:47.206Z,99140.80
2023-01-19T05:17:58.133Z,99141.60
2023-01-19T05:23:07.590Z,99142.40
2023-01-19T05:28:47.243Z,99149.80
2023-01-19T05:34:42.545Z,99161.20
2023-01-19T05:39:56.358Z,99159.20
2023-01-19T05:46:02.161Z,99174.00
2023-01-19T05:51:46.163Z,99187.60
2023-01-19T05:56:52.570Z,99201.80
2023-01-19T06:02:03.732Z,99207.80
2023-01-19T06:07:49.039Z,99213.60
2023-01-19T06:12:57.916Z,99237.00
2023-01-19T06:18:04.915Z,99243.40
2023-01-19T06:23:11.484Z,99248.80
2023-01-19T06:28:17.270Z,99258.20
2023-01-19T06:33:28.135Z,99265.80
2023-01-19T06:38:55.578Z,99272.60
2023-01-19T06:44:12.290Z,99278.80
2023-01-19T06:49:36.106Z,99285.40
2023-01-19T06:54:49.743Z,99284.00
2023-01-19T06:59:52.961Z,99291.60
2023-01-19T07:05:02.238Z,99293.60
2023-01-19T07:10:08.416Z,99309.60
2023-01-19T07:15:20.541Z,99321.40
2023-01-19T07:20:52.224Z,99334.80
2023-01-19T07:25:59.157Z,99342.40
2023-01-19T07:31:22.583Z,99362.00
2023-01-19T07:36:37.341Z,99384.60
2023-01-19T07:41:43.305Z,99379.40
2023-01-19T07:46:46.675Z,99382.20
2023-01-19T07:51:56.319Z,99382.20
2023-01-19T07:57:00.996Z,99393.40
2023-01-19T08:02:48.553Z,99377.80
2023-01-19T08:07:54.259Z,99386.00
2023-01-19T08:13:01.793Z,99388.00
2023-01-19T08:18:21.585Z,99393.40
2023-01-19T08:23:48.487Z,99390.60
2023-01-19T08:28:51.794Z,99380.00
2023-01-19T08:34:14.507Z,99386.40
2023-01-19T08:39:24.025Z,99383.00
2023-01-19T08:44:57.531Z,99396.60
2023-01-19T08:50:04.055Z,99400.00
2023-01-19T08:55:12.605Z,99410.60
2023-01-19T09:01:11.060Z,99414.40
2023-01-19T09:06:18.680Z,99415.60
2023-01-19T09:11:25.255Z,99424.40
2023-01-19T09:16:29.820Z,99430.80
2023-01-19T09:21:33.155Z,99434.00
2023-01-19T09:26:51.748Z,99428.80
2023-01-19T09:32:00.172Z,99426.60
2023-01-19T09:37:46.107Z,99427.20
2023-01-19T09:43:04.690Z,99428.80
2023-01-19T09:48:58.245Z,99429.00
2023-01-19T09:54:56.686Z,99426.00
2023-01-19T10:00:00.003Z,99424.40
2023-01-19T10:05:28.639Z,99428.60
2023-01-19T10:10:33.467Z,99422.20
2023-01-19T10:15:59.191Z,99422.60
2023-01-19T10:21:40.238Z,99431.40
2023-01-19T10:26:53.269Z,99435.20
2023-01-19T10:32:22.067Z,99439.00
2023-01-19T10:38:22.398Z,99434.40
2023-01-19T10:44:11.018Z,99433.80
2023-01-19T10:50:06.023Z,99437.60
2023-01-19T10:55:38.221Z,99444.00
2023-01-19T11:00:47.916Z,99430.40
2023-01-19T11:06:01.871Z,99422.60
2023-01-19T11:11:08.558Z,99414.60
2023-01-19T11:16:58.419Z,99409.40
2023-01-19T11:23:13.803Z,99413.80
2023-01-19T11:28:54.637Z,99415.40
2023-01-19T11:34:46.630Z,99412.00
2023-01-19T11:40:05.073Z,99412.40
2023-01-19T11:45:38.623Z,99411.20
2023-01-19T11:51:08.615Z,99411.80
2023-01-19T11:56:36.248Z,99409.60
2023-01-19T12:01:55.027Z,99406.40
2023-01-19T12:07:54.241Z,99411.00
2023-01-19T12:13:08.866Z,99408.20
2023-01-19T12:19:03.730Z,99407.00
2023-01-19T12:25:02.337Z,99403.60
2023-01-19T12:30:46.825Z,99398.00
2023-01-19T12:36:40.325Z,99399.60
2023-01-19T12:41:48.284Z,99405.20
2023-01-19T12:47:24.636Z,99397.80
2023-01-19T12:52:48.095Z,99387.80
2023-01-19T12:58:22.430Z,99392.00
2023-01-19T13:03:45.627Z,99398.20
2023-01-19T13:09:24.252Z,99389.40
2023-01-19T13:14:42.700Z,99395.00
2023-01-19T13:19:56.824Z,99397.60
2023-01-19T13:25:48.369Z,99392.20
2023-01-19T13:31:08.784Z,99401.40
2023-01-19T13:36:45.060Z,99394.00
2023-01-19T13:42:41.946Z,99390.60
2023-01-19T13:47:54.193Z,99396.20
2023-01-19T13:53:01.569Z,99391.40
2023-01-19T13:58:26.111Z,99396.80
2023-01-19T14:03:52.492Z,99404.20
2023-01-19T14:09:18.907Z,99401.20
2023-01-19T14:14:32.073Z,99412.00
2023-01-19T14:19:50.061Z,99419.20
2023-01-19T14:24:56.629Z,99425.40
2023-01-19T14:30:35.986Z,99422.20
2023-01-19T14:35:39.206Z,99428.00
2023-01-19T14:40:45.920Z,99438.20
2023-01-19T14:45:56.354Z,99438.60
2023-01-19T14:51:19.182Z,99447.60
2023-01-19T14:56:29.814Z,99445.60
2023-01-19T15:01:42.411Z,99454.80
2023-01-19T15:06:55.522Z,99451.40
2023-01-19T15:12:02.475Z,99456.80
2023-01-19T15:17:05.941Z,99455.40
2023-01-19T15:22:13.734Z,99459.20
2023-01-19T15:27:21.774Z,99454.60
2023-01-19T15:32:25.127Z,99453.40
2023-01-19T15:37:33.143Z,99450.60
2023-01-19T15:42:39.565Z,99459.40
2023-01-19T15:47:58.665Z,99462.20
2023-01-19T15:53:02.358Z,99467.80
2023-01-19T15:58:20.755Z,99472.00
2023-01-19T16:03:27.256Z,99482.80
2023-01-19T16:08:39.627Z,99481.40
2023-01-19T16:13:47.698Z,99487.40
2023-01-19T16:19:13.932Z,99488.60
2023-01-19T16:24:30.852Z,99496.60
2023-01-19T16:29:37.974Z,99495.80
2023-01-19T16:34:44.559Z,99497.80
2023-01-19T16:39:50.870Z,99498.20
2023-01-19T16:45:04.460Z,99499.20
2023-01-19T16:50:38.913Z,99494.00
2023-01-19T16:55:47.468Z,99501.60
2023-01-19T17:00:51.064Z,99499.00
2023-01-19T17:05:54.683Z,99498.40
2023-01-19T17:11:04.970Z,99505.20
2023-01-19T17:16:09.856Z,99503.80
2023-01-19T17:21:21.925Z,99499.60
2023-01-19T17:26:37.772Z,99502.20
2023-01-19T17:31:44.566Z,99501.60
2023-01-19T17:37:02.853Z,99502.60
2023-01-19T17:42:06.407Z,99499.40
2023-01-19T17:47:09.872Z,99499.40
2023-01-19T17:52:20.245Z,99504.80
2023-01-19T17:57:26.905Z,99502.00
2023-01-19T18:02:59.143Z,99499.40
2023-01-19T18:08:02.917Z,99497.80
2023-01-19T18:13:06.152Z,99495.60
2023-01-19T18:18:09.116Z,99486.80
2023-01-19T18:23:21.158Z,99489.00
2023-01-19T18:28:44.563Z,99491.00
2023-01-19T18:33:53.303Z,99487.60
2023-01-19T18:39:09.898Z,99491.40
2023-01-19T18:44:16.393Z,99482.80
2023-01-19T18:49:27.530Z,99481.60
2023-01-19T18:54:33.147Z,99487.40
2023-01-19T18:59:42.695Z,99490.80
2023-01-19T19:04:45.812Z,99492.40
2023-01-19T19:09:59.137Z,99489.40
2023-01-19T19:15:02.532Z,99488.60
2023-01-19T19:20:06.271Z,99492.20
2023-01-19T19:25:10.200Z,99501.40
2023-01-19T19:30:23.953Z,99501.20
2023-01-19T19:35:36.540Z,99493.00
2023-01-19T19:40:40.276Z,99495.20
2023-01-19T19:45:44.969Z,99493.40
2023-01-19T19:50:48.526Z,99492.00
2023-01-19T19:56:06.522Z,99500.40
2023-01-19T20:01:12.870Z,99514.20
2023-01-19T20:06:23.417Z,99521.40
2023-01-19T20:12:20.078Z,99517.40
2023-01-19T20:17:43.504Z,99516.40
2023-01-19T20:23:22.761Z,99510.80
2023-01-19T20:29:07.993Z,99500.00
2023-01-19T20:34:14.907Z,99510.40
2023-01-19T20:39:20.823Z,99511.40
2023-01-19T20:44:29.178Z,99513.60
2023-01-19T20:49:43.258Z,99514.00
2023-01-19T20:55:09.012Z,99512.60
2023-01-19T21:01:31.203Z,99518.20
2023-01-19T21:07:45.667Z,99516.20
2023-01-19T21:13:09.617Z,99525.40
2023-01-19T21:18:35.618Z,99535.20
2023-01-19T21:23:41.220Z,99537.00
2023-01-19T21:28:55.889Z,99539.80
2023-01-19T21:33:59.306Z,99533.40
2023-01-19T21:39:05.889Z,99549.40
2023-01-19T21:44:11.345Z,99556.20
2023-01-19T21:50:08.402Z,99555.40
2023-01-19T21:55:30.350Z,99574.40
2023-01-19T22:07:02.330Z,99580.80
2023-01-19T22:12:34.336Z,99576.60
2023-01-19T22:18:12.187Z,99573.80
2023-01-19T22:23:50.553Z,99590.60
2023-01-19T22:29:06.002Z,99594.00
2023-01-19T22:34:21.762Z,99593.80
2023-01-19T22:40:16.697Z,99590.60
2023-01-19T22:45:45.666Z,99593.00
2023-01-19T22:50:52.022Z,99600.80
2023-01-19T22:56:44.024Z,99594.80
2023-01-19T23:03:06.710Z,99594.40
2023-01-19T23:08:10.492Z,99611.20
2023-01-19T23:13:58.144Z,99610.40
2023-01-19T23:19:07.605Z,99626.40
2023-01-19T23:24:31.519Z,99632.40
2023-01-19T23:29:35.328Z,99634.20
2023-01-19T23:35:02.451Z,99638.60
2023-01-19T23:40:38.628Z,99641.80
2023-01-19T23:45:44.672Z,99640.20
2023-01-19T23:51:12.423Z,99659.80
2023-01-19T23:57:07.962Z,99656.40
